Time;durP1;ratioP1;P1;durP2;ratioP2;P2;SDS_P1;SDS_P2;PMS_P1;PMS_P2;Temp;Humidity;BMP_temperature;BMP_pressure;BME280_temperature;BME280_humidity;BME280_pressure;Samples;Min_cycle;Max_cycle;Signal;HPM_P1;HPM_P2
2021/06/29 00:00:26;;;;;;;8.35;7.67;;;;;;;17.74;68.77;96490.02;1639246;86;20994;-80
2021/06/29 00:03:02;;;;;;;8.30;7.60;;;;;;;17.72;68.59;96484.97;1650339;85;21035;-80
2021/06/29 00:05:29;;;;;;;8.28;7.35;;;;;;;17.73;68.37;96489.70;1659062;85;21018;-80
2021/06/29 00:07:55;;;;;;;8.08;7.25;;;;;;;17.72;68.44;96490.22;1647532;85;21297;-80
2021/06/29 00:10:23;;;;;;;8.10;7.40;;;;;;;17.70;68.50;96493.59;1644250;85;20993;-80
2021/06/29 00:12:50;;;;;;;7.40;6.80;;;;;;;17.68;68.32;96492.50;1669174;85;21362;-80
2021/06/29 00:15:21;;;;;;;8.88;8.08;;;;;;;17.68;68.31;96489.07;1640643;86;21370;-80
2021/06/29 00:17:46;;;;;;;7.80;7.00;;;;;;;17.70;68.37;96489.13;1640067;86;21014;-79
2021/06/29 00:20:13;;;;;;;8.23;7.53;;;;;;;17.73;68.11;96485.25;1657404;85;21326;-79
2021/06/29 00:22:39;;;;;;;8.75;7.87;;;;;;;17.75;68.02;96483.23;1653431;84;20971;-79
2021/06/29 00:25:06;;;;;;;9.48;8.18;;;;;;;17.77;67.89;96481.69;1646672;85;21037;-79
2021/06/29 00:27:31;;;;;;;8.70;7.83;;;;;;;17.75;67.55;96483.23;1621915;86;20966;-80
2021/06/29 00:29:57;;;;;;;8.90;7.45;;;;;;;17.70;67.47;96478.63;1631984;85;20939;-79
2021/06/29 00:32:23;;;;;;;8.80;8.00;;;;;;;17.68;67.44;96481.98;1611630;87;21314;-80
2021/06/29 00:34:49;;;;;;;8.60;7.62;;;;;;;17.65;67.50;96473.21;1662859;85;20957;-80
2021/06/29 00:37:15;;;;;;;8.90;8.10;;;;;;;17.63;67.90;96474.47;1646003;86;21333;-80
2021/06/29 00:39:40;;;;;;;8.05;7.08;;;;;;;17.63;67.93;96473.16;1637626;86;20993;-80
2021/06/29 00:42:07;;;;;;;8.98;8.20;;;;;;;17.64;68.33;96476.87;1643986;84;21047;-80
2021/06/29 00:44:33;;;;;;;9.08;8.23;;;;;;;17.67;68.41;96474.30;1652810;84;20932;-79
2021/06/29 00:46:58;;;;;;;9.13;8.43;;;;;;;17.67;68.40;96472.98;1668204;84;20922;-80
2021/06/29 00:49:24;;;;;;;8.78;8.00;;;;;;;17.63;68.41;96466.58;1669173;84;20941;-80
2021/06/29 00:51:50;;;;;;;8.90;8.03;;;;;;;17.59;68.10;96458.87;1652811;85;20933;-80
2021/06/29 00:54:16;;;;;;;9.55;8.70;;;;;;;17.54;68.15;96452.14;1653549;85;20900;-80
2021/06/29 00:56:43;;;;;;;8.55;7.72;;;;;;;17.51;68.17;96452.59;1619536;87;21301;-80
2021/06/29 00:59:09;;;;;;;7.85;7.05;;;;;;;17.49;67.86;96450.71;1629754;86;20965;-80
2021/06/29 01:01:35;;;;;;;8.38;7.67;;;;;;;17.48;68.47;96447.28;1658403;85;21226;-80
2021/06/29 01:04:01;;;;;;;8.73;7.92;;;;;;;17.48;69.43;96446.48;1656272;85;20910;-79
2021/06/29 01:06:28;;;;;;;9.45;8.53;;;;;;;17.48;69.41;96444.66;1620187;87;20922;-80
2021/06/29 01:08:54;;;;;;;8.13;7.42;;;;;;;17.48;69.76;96442.55;1643902;86;20978;-79
2021/06/29 01:11:20;;;;;;;8.80;7.97;;;;;;;17.47;69.84;96437.00;1622327;86;21010;-79
2021/06/29 01:13:46;;;;;;;8.88;8.18;;;;;;;17.45;70.26;96435.12;1644028;86;21221;-80
2021/06/29 01:16:12;;;;;;;7.75;6.90;;;;;;;17.43;70.20;96433.23;1635557;85;20946;-79
2021/06/29 01:18:40;;;;;;;8.40;7.62;;;;;;;17.43;69.81;96434.54;1657013;85;20910;-80
2021/06/29 01:21:07;;;;;;;8.18;7.37;;;;;;;17.43;69.14;96431.91;1664551;85;20997;-80
2021/06/29 01:23:35;;;;;;;8.28;7.58;;;;;;;17.42;68.79;96425.06;1655449;85;20960;-80
2021/06/29 01:26:28;;;;;;;8.53;7.72;;;;;;;17.39;68.89;96425.77;1659559;85;20949;-79
2021/06/29 01:31:20;;;;;;;8.98;8.10;;;;;;;17.35;69.34;96420.68;1674028;85;20972;-80
2021/06/29 01:33:46;;;;;;;8.08;7.40;;;;;;;17.34;69.19;96416.97;1672387;85;20979;-80
2021/06/29 01:36:17;;;;;;;7.55;6.85;;;;;;;17.34;69.00;96420.39;1641250;86;20967;-79
2021/06/29 01:38:44;;;;;;;8.63;7.83;;;;;;;17.35;68.81;96416.74;1667599;85;20979;-80
2021/06/29 01:41:12;;;;;;;8.23;7.42;;;;;;;17.38;69.10;96420.23;1669101;85;21249;-80
2021/06/29 01:43:46;;;;;;;8.15;7.42;;;;;;;17.40;69.36;96414.75;1646597;85;21014;-79
2021/06/29 01:46:08;;;;;;;8.08;7.30;;;;;;;17.40;69.34;96416.86;1665247;85;21043;-81
2021/06/29 01:48:34;;;;;;;8.60;7.90;;;;;;;17.40;69.33;96410.30;1669297;85;20992;-80
2021/06/29 01:51:00;;;;;;;9.55;8.65;;;;;;;17.40;69.54;96409.50;1662892;85;20947;-79
2021/06/29 01:53:25;;;;;;;8.20;7.33;;;;;;;17.38;69.42;96405.78;1622344;86;21220;-80
2021/06/29 01:55:51;;;;;;;7.47;6.87;;;;;;;17.40;69.40;96401.62;1621994;87;20964;-80
2021/06/29 01:58:26;;;;;;;8.68;7.72;;;;;;;17.44;69.35;96394.11;1662551;85;20939;-80
2021/06/29 02:00:47;;;;;;;7.75;7.05;;;;;;;17.46;69.43;96395.48;1665198;85;20955;-79
2021/06/29 02:03:13;;;;;;;9.00;8.18;;;;;;;17.47;69.57;96398.40;1669288;85;21019;-79
2021/06/29 02:05:39;;;;;;;8.15;7.45;;;;;;;17.46;69.75;96401.25;1665565;85;20975;-80
2021/06/29 02:08:05;;;;;;;8.70;7.90;;;;;;;17.45;69.57;96402.28;1666617;85;21038;-79
2021/06/29 02:10:31;;;;;;;9.73;8.30;;;;;;;17.40;70.00;96401.62;1664338;85;20955;-79
2021/06/29 02:12:58;;;;;;;8.40;7.60;;;;;;;17.36;69.58;96402.59;1666082;85;21031;-80
2021/06/29 02:15:25;;;;;;;8.25;7.47;;;;;;;17.36;69.60;96405.21;1665735;85;20934;-79
2021/06/29 02:17:50;;;;;;;8.00;7.22;;;;;;;17.36;69.63;96403.89;1667450;85;20958;-80
2021/06/29 02:20:17;;;;;;;8.25;7.55;;;;;;;17.36;69.50;96407.03;1664331;85;20946;-79
2021/06/29 02:22:45;;;;;;;8.38;7.55;;;;;;;17.35;69.47;96406.75;1662013;85;20926;-79
2021/06/29 02:25:13;;;;;;;9.18;8.38;;;;;;;17.32;69.37;96400.12;1655177;85;20996;-79
2021/06/29 02:27:39;;;;;;;10.00;9.00;;;;;;;17.29;69.14;96401.09;1646687;85;20998;-80
2021/06/29 02:30:06;;;;;;;8.75;8.00;;;;;;;17.25;68.90;96407.30;1669074;85;20948;-79
2021/06/29 02:32:32;;;;;;;9.15;8.35;;;;;;;17.22;69.01;96407.73;1668683;85;21007;-80
2021/06/29 02:34:58;;;;;;;8.55;7.75;;;;;;;17.22;69.19;96413.48;1669177;85;20955;-79
2021/06/29 02:37:25;;;;;;;9.93;8.70;;;;;;;17.19;69.16;96411.31;1656538;86;20946;-79
2021/06/29 02:39:51;;;;;;;9.38;8.60;;;;;;;17.18;69.30;96415.77;1634042;85;21227;-79
2021/06/29 02:42:18;;;;;;;9.85;8.95;;;;;;;17.14;69.28;96409.36;1660611;86;20989;-80
2021/06/29 02:44:46;;;;;;;9.25;8.45;;;;;;;17.11;69.48;96409.81;1653038;85;21263;-79
2021/06/29 02:47:12;;;;;;;9.05;8.05;;;;;;;17.09;70.12;96409.23;1637728;85;20967;-80
2021/06/29 02:49:38;;;;;;;8.35;7.65;;;;;;;17.05;70.36;96408.85;1666643;86;21289;-79
2021/06/29 02:52:05;;;;;;;8.53;7.72;;;;;;;17.08;70.41;96416.31;1668632;85;20940;-80
2021/06/29 02:54:31;;;;;;;7.83;7.17;;;;;;;17.12;70.57;96414.55;1665959;85;20901;-80
2021/06/29 02:56:57;;;;;;;7.70;7.00;;;;;;;17.12;70.94;96410.10;1649038;86;20946;-79
2021/06/29 02:59:23;;;;;;;8.00;7.30;;;;;;;17.13;70.86;96413.02;1666702;85;21024;-79
2021/06/29 03:01:49;;;;;;;8.43;7.42;;;;;;;17.15;70.73;96404.91;1641660;86;20951;-79
2021/06/29 03:04:15;;;;;;;7.30;6.70;;;;;;;17.16;70.75;96408.63;1665161;85;20990;-80
2021/06/29 03:06:41;;;;;;;7.78;7.08;;;;;;;17.16;70.87;96413.88;1665806;85;21035;-80
2021/06/29 03:09:07;;;;;;;7.37;6.47;;;;;;;17.19;70.64;96418.67;1647542;86;21336;-80
2021/06/29 03:11:33;;;;;;;7.70;6.92;;;;;;;17.23;70.58;96418.52;1663404;85;20918;-80
2021/06/29 03:13:59;;;;;;;9.08;7.12;;;;;;;17.29;70.39;96418.16;1666758;85;21007;-80
2021/06/29 03:16:25;;;;;;;8.20;7.50;;;;;;;17.35;70.55;96412.00;1668173;85;21268;-80
2021/06/29 03:18:50;;;;;;;8.53;7.72;;;;;;;17.36;70.81;96406.52;1665788;85;20888;-80
2021/06/29 03:21:18;;;;;;;8.75;8.05;;;;;;;17.38;71.11;96392.66;1667499;85;20980;-80
2021/06/29 03:23:43;;;;;;;8.10;7.40;;;;;;;17.41;71.22;96400.62;1668506;85;21031;-79
2021/06/29 03:26:09;;;;;;;8.25;7.45;;;;;;;17.46;71.13;96402.05;1649451;85;21890;-80
2021/06/29 03:28:35;;;;;;;8.25;7.55;;;;;;;17.51;70.92;96404.00;1669366;85;20992;-80
2021/06/29 03:31:01;;;;;;;7.42;6.83;;;;;;;17.57;71.04;96403.09;1668965;85;20991;-79
2021/06/29 03:33:26;;;;;;;8.35;7.65;;;;;;;17.62;71.19;96404.04;1667284;85;21017;-80
2021/06/29 03:35:52;;;;;;;8.25;7.50;;;;;;;17.68;71.25;96399.22;1664554;85;21321;-79
2021/06/29 03:38:18;;;;;;;8.73;7.83;;;;;;;17.75;71.51;96397.81;1664310;85;20961;-79
2021/06/29 03:40:44;;;;;;;8.10;7.08;;;;;;;17.82;71.64;96396.39;1666085;86;20888;-79
2021/06/29 03:43:10;;;;;;;7.70;6.90;;;;;;;17.89;71.65;96393.13;1635462;86;21342;-79
2021/06/29 03:45:36;;;;;;;7.95;7.25;;;;;;;17.93;71.63;96389.84;1657551;85;21038;-79
2021/06/29 03:48:02;;;;;;;8.08;7.40;;;;;;;18.00;71.38;96393.66;1664235;85;20994;-80
2021/06/29 03:50:27;;;;;;;9.03;8.13;;;;;;;18.05;72.01;96387.19;1664339;85;21338;-79
2021/06/29 03:52:54;;;;;;;8.88;8.08;;;;;;;18.06;71.99;96385.36;1662348;85;20996;-80
2021/06/29 03:55:20;;;;;;;8.15;7.45;;;;;;;18.03;72.01;96390.56;1649613;85;20943;-79
2021/06/29 03:57:45;;;;;;;7.83;7.12;;;;;;;18.02;72.12;96392.11;1663349;85;20958;-79
2021/06/29 04:00:12;;;;;;;7.65;6.92;;;;;;;18.05;72.46;96387.70;1668927;85;20948;-79
2021/06/29 04:02:38;;;;;;;7.78;6.97;;;;;;;18.07;72.45;96389.63;1669237;85;20948;-80
2021/06/29 04:05:05;;;;;;;8.03;7.33;;;;;;;18.11;72.50;96393.39;1668691;85;20940;-79
2021/06/29 04:07:31;;;;;;;8.58;7.72;;;;;;;18.13;72.65;96397.38;1665458;85;20935;-80
2021/06/29 04:09:57;;;;;;;8.55;7.75;;;;;;;18.15;73.20;96395.33;1666424;85;21358;-79
2021/06/29 04:12:23;;;;;;;8.13;7.42;;;;;;;18.16;73.24;96390.34;1668025;85;21135;-80
2021/06/29 04:14:48;;;;;;;7.33;6.72;;;;;;;18.22;73.33;96392.56;1669420;85;20939;-79
2021/06/29 04:17:14;;;;;;;8.55;7.75;;;;;;;18.25;73.34;96386.88;1669312;86;21285;-79
2021/06/29 04:19:40;;;;;;;9.13;8.33;;;;;;;18.27;73.21;96380.34;1668652;85;20924;-79
2021/06/29 04:22:07;;;;;;;8.08;7.35;;;;;;;18.28;73.04;96378.00;1669113;85;20892;-79
2021/06/29 04:24:34;;;;;;;8.63;7.70;;;;;;;18.30;73.36;96383.83;1668925;85;20956;-80
2021/06/29 04:27:00;;;;;;;8.38;7.08;;;;;;;18.28;73.36;96373.25;1663523;85;20951;-80
2021/06/29 04:29:26;;;;;;;8.35;7.55;;;;;;;18.33;73.51;96377.30;1638206;86;20998;-80
2021/06/29 04:31:52;;;;;;;9.60;7.75;;;;;;;18.38;73.62;96378.72;1650503;86;21004;-79
2021/06/29 04:34:17;;;;;;;8.03;7.33;;;;;;;18.44;73.67;96381.76;1603972;88;20999;-80
2021/06/29 04:36:44;;;;;;;7.85;7.20;;;;;;;18.50;73.63;96382.66;1664132;85;21000;-80
2021/06/29 04:39:11;;;;;;;9.03;8.18;;;;;;;18.54;73.71;96384.58;1648443;85;20981;-79
2021/06/29 04:41:37;;;;;;;9.28;7.78;;;;;;;18.57;73.81;96377.57;1655729;85;21016;-80
2021/06/29 04:44:04;;;;;;;7.47;6.87;;;;;;;18.56;73.89;96373.34;1662516;85;21068;-80
2021/06/29 04:46:30;;;;;;;7.60;6.90;;;;;;;18.56;73.93;96377.28;1666989;85;20926;-79
2021/06/29 04:48:57;;;;;;;8.03;7.33;;;;;;;18.61;74.19;96371.32;1634369;86;20998;-80
2021/06/29 04:51:23;;;;;;;8.93;8.10;;;;;;;18.64;73.95;96374.03;1638290;86;20966;-79
2021/06/29 04:53:48;;;;;;;8.30;7.60;;;;;;;18.68;73.83;96374.64;1638136;86;21267;-80
2021/06/29 04:56:17;;;;;;;7.87;7.17;;;;;;;18.70;73.73;96365.98;1637371;86;20935;-80
2021/06/29 04:58:53;;;;;;;8.73;7.97;;;;;;;18.73;73.96;96375.28;1666790;85;20994;-80
2021/06/29 05:01:20;;;;;;;8.13;7.35;;;;;;;18.73;74.09;96374.77;1666540;85;20990;-79
2021/06/29 05:03:46;;;;;;;7.92;7.28;;;;;;;18.77;74.25;96375.89;1666682;85;20954;-80
2021/06/29 05:06:12;;;;;;;8.40;7.58;;;;;;;18.81;74.13;96376.22;1663273;85;21223;-79
2021/06/29 05:08:37;;;;;;;9.03;8.23;;;;;;;18.86;73.96;96370.52;1647243;85;21301;-79
2021/06/29 05:11:03;;;;;;;9.63;8.73;;;;;;;18.95;74.21;96364.91;1666053;85;20958;-79
2021/06/29 05:13:29;;;;;;;9.35;8.25;;;;;;;18.97;74.30;96365.46;1636825;86;21002;-80
2021/06/29 05:15:54;;;;;;;8.20;7.42;;;;;;;18.95;74.36;96363.58;1638015;86;21295;-80
2021/06/29 05:18:20;;;;;;;8.15;7.45;;;;;;;18.95;74.56;96364.38;1621778;86;21013;-80
2021/06/29 05:20:46;;;;;;;9.70;8.70;;;;;;;18.95;74.68;96370.17;1641349;85;21001;-79
2021/06/29 05:23:11;;;;;;;8.15;7.37;;;;;;;18.95;74.96;96366.22;1667121;85;21271;-79
2021/06/29 05:25:38;;;;;;;9.83;8.93;;;;;;;19.01;74.72;96366.06;1650767;86;21028;-80
2021/06/29 05:28:04;;;;;;;9.20;8.30;;;;;;;19.06;75.33;96368.81;1658406;85;21022;-79
2021/06/29 05:30:30;;;;;;;9.03;8.23;;;;;;;19.10;75.41;96367.30;1648208;85;21282;-80
2021/06/29 05:32:56;;;;;;;8.65;7.95;;;;;;;19.15;75.39;96362.12;1648603;85;20939;-79
2021/06/29 05:35:22;;;;;;;8.83;8.05;;;;;;;19.18;75.42;96365.59;1661434;85;20968;-79
2021/06/29 05:37:48;;;;;;;10.03;9.13;;;;;;;19.27;75.34;96365.23;1666550;85;20974;-80
2021/06/29 05:40:14;;;;;;;8.98;8.18;;;;;;;19.40;75.29;96362.30;1637916;86;20950;-80
2021/06/29 05:42:40;;;;;;;8.90;8.10;;;;;;;19.50;75.84;96357.98;1616430;87;21025;-80
2021/06/29 05:45:06;;;;;;;9.23;8.43;;;;;;;19.59;75.80;96361.59;1636214;87;21264;-80
2021/06/29 05:47:35;;;;;;;8.53;7.83;;;;;;;19.68;75.57;96354.34;1666749;85;20925;-80
2021/06/29 05:50:00;;;;;;;7.80;7.20;;;;;;;19.84;75.46;96361.17;1627847;85;20958;-80
2021/06/29 05:52:26;;;;;;;10.40;9.50;;;;;;;19.94;75.59;96354.23;1646193;85;21012;-80
2021/06/29 05:54:52;;;;;;;7.62;6.90;;;;;;;20.07;74.82;96355.74;1633148;85;21007;-80
2021/06/29 05:57:17;;;;;;;8.70;7.90;;;;;;;20.21;75.10;96357.52;1659290;86;20956;-80
2021/06/29 05:59:43;;;;;;;9.98;8.98;;;;;;;20.31;75.39;96358.44;1656222;85;20985;-80
2021/06/29 06:02:09;;;;;;;9.43;8.25;;;;;;;20.44;75.26;96357.84;1653840;85;21307;-80
2021/06/29 06:04:35;;;;;;;7.75;7.05;;;;;;;20.54;75.10;96364.59;1651661;85;20936;-80
2021/06/29 06:07:02;;;;;;;9.28;8.40;;;;;;;20.65;75.08;96361.02;1645924;85;20998;-80
2021/06/29 06:09:28;;;;;;;7.35;6.62;;;;;;;20.71;74.54;96360.57;1652892;85;21344;-80
2021/06/29 06:11:53;;;;;;;8.45;7.65;;;;;;;20.78;74.75;96355.37;1649544;85;20982;-79
2021/06/29 06:14:19;;;;;;;8.60;7.90;;;;;;;20.85;74.88;96364.44;1653873;85;20989;-80
2021/06/29 06:16:45;;;;;;;10.90;9.88;;;;;;;20.87;75.27;96354.42;1654727;85;20988;-80
2021/06/29 06:19:10;;;;;;;9.48;8.65;;;;;;;20.98;73.91;96356.11;1665737;85;21341;-80
2021/06/29 06:21:36;;;;;;;10.08;9.28;;;;;;;21.06;74.21;96358.33;1633479;87;20912;-80
2021/06/29 06:24:02;;;;;;;12.43;11.33;;;;;;;21.17;74.41;96363.20;1621380;87;21078;-80
2021/06/29 06:26:27;;;;;;;12.68;11.38;;;;;;;21.26;73.45;96358.55;1655965;83;21410;-79
2021/06/29 06:28:54;;;;;;;13.78;12.40;;;;;;;21.35;73.39;96357.59;1675743;85;21072;-80
2021/06/29 06:31:19;;;;;;;13.75;11.55;;;;;;;21.40;72.77;96352.88;1640501;84;21035;-80
2021/06/29 06:33:45;;;;;;;10.20;9.28;;;;;;;21.49;72.66;96340.80;1673818;85;20980;-80
2021/06/29 06:36:11;;;;;;;11.45;10.43;;;;;;;21.54;73.47;96336.34;1626881;86;21285;-79
2021/06/29 06:38:37;;;;;;;14.47;12.30;;;;;;;21.63;73.37;96330.05;1670837;85;20948;-80
2021/06/29 06:41:03;;;;;;;12.53;11.43;;;;;;;21.73;73.56;96332.00;1667415;84;20979;-80
2021/06/29 06:43:29;;;;;;;57.15;19.05;;;;;;;21.72;73.58;96335.69;1666030;85;21361;-80
2021/06/29 06:45:54;;;;;;;11.18;9.55;;;;;;;21.75;73.28;96330.69;1673824;84;20964;-80
2021/06/29 06:48:20;;;;;;;11.85;9.48;;;;;;;21.82;73.49;96329.16;1673811;84;21020;-80
2021/06/29 06:50:46;;;;;;;11.30;10.20;;;;;;;21.95;72.41;96329.23;1693087;83;21021;-80
2021/06/29 06:53:13;;;;;;;11.63;10.50;;;;;;;22.10;72.25;96334.65;1696362;84;21291;-80
2021/06/29 06:55:40;;;;;;;11.30;9.85;;;;;;;22.27;71.11;96329.98;1673955;85;21042;-80
2021/06/29 06:58:06;;;;;;;11.15;9.98;;;;;;;22.36;72.20;96327.66;1678119;84;20987;-80
2021/06/29 07:00:32;;;;;;;11.28;10.08;;;;;;;22.43;71.61;96324.23;1680338;84;21334;-80
2021/06/29 07:02:58;;;;;;;11.80;10.70;;;;;;;22.54;71.05;96327.73;1661604;84;20981;-80
2021/06/29 07:05:24;;;;;;;17.00;12.00;;;;;;;22.67;70.66;96325.94;1688320;84;20981;-80
2021/06/29 07:07:50;;;;;;;12.45;11.15;;;;;;;22.82;70.98;96327.85;1687782;84;20896;-80
2021/06/29 07:10:15;;;;;;;11.18;10.18;;;;;;;22.90;70.29;96326.83;1688292;84;20944;-80
2021/06/29 07:12:41;;;;;;;12.50;11.30;;;;;;;22.98;70.24;96329.52;1687955;84;20975;-80
2021/06/29 07:15:08;;;;;;;13.05;11.85;;;;;;;23.04;69.61;96321.30;1668547;84;21016;-80
2021/06/29 07:17:34;;;;;;;13.55;11.30;;;;;;;23.11;69.13;96316.30;1687936;84;20984;-80
2021/06/29 07:20:01;;;;;;;18.67;12.55;;;;;;;23.19;69.18;96321.07;1679637;84;20950;-80
2021/06/29 07:22:26;;;;;;;23.60;13.13;;;;;;;23.28;69.22;96316.33;1681763;84;21284;-80
2021/06/29 07:24:52;;;;;;;12.63;11.28;;;;;;;23.38;69.14;96311.55;1670112;85;20901;-80
2021/06/29 07:27:18;;;;;;;11.18;10.08;;;;;;;23.51;69.13;96313.67;1683874;84;21016;-80
2021/06/29 07:29:44;;;;;;;13.08;11.30;;;;;;;23.61;69.51;96316.37;1668280;85;21337;-80
2021/06/29 07:32:09;;;;;;;11.40;10.32;;;;;;;23.64;67.94;96317.16;1672838;85;21290;-80
2021/06/29 07:34:36;;;;;;;12.45;11.28;;;;;;;23.67;69.09;96319.01;1634214;85;20992;-79
2021/06/29 07:37:02;;;;;;;13.00;11.28;;;;;;;23.60;68.03;96316.10;1653228;85;21405;-80
2021/06/29 07:39:28;;;;;;;10.98;9.98;;;;;;;23.61;68.15;96313.72;1625257;85;21008;-80
2021/06/29 07:41:53;;;;;;;10.70;9.70;;;;;;;23.62;69.04;96311.86;1664422;85;20949;-79
2021/06/29 07:44:19;;;;;;;12.47;10.98;;;;;;;23.60;69.26;96316.63;1680637;85;20976;-80
2021/06/29 07:46:45;;;;;;;11.40;10.30;;;;;;;23.65;68.16;96311.32;1680244;85;21201;-80
2021/06/29 07:49:10;;;;;;;11.15;10.15;;;;;;;23.76;68.63;96318.22;1680555;85;21009;-80
2021/06/29 07:51:36;;;;;;;12.50;11.25;;;;;;;23.83;67.86;96314.75;1679708;85;21025;-80
2021/06/29 07:54:02;;;;;;;11.48;10.43;;;;;;;23.86;67.44;96312.88;1680874;85;20988;-80
2021/06/29 07:56:28;;;;;;;11.50;10.30;;;;;;;23.92;67.05;96316.34;1679294;85;20921;-80
2021/06/29 07:58:53;;;;;;;12.78;10.50;;;;;;;24.01;68.40;96318.70;1680740;85;20925;-80
2021/06/29 08:01:19;;;;;;;10.88;9.85;;;;;;;24.06;67.86;96316.56;1680911;85;20913;-80
2021/06/29 08:03:45;;;;;;;10.90;9.68;;;;;;;24.14;67.23;96321.34;1680624;85;21285;-80
2021/06/29 08:06:11;;;;;;;12.05;10.95;;;;;;;24.19;67.98;96308.05;1680514;85;20925;-80
2021/06/29 08:08:37;;;;;;;11.03;10.03;;;;;;;24.32;68.30;96318.13;1680726;85;20976;-80
2021/06/29 08:11:05;;;;;;;12.30;11.03;;;;;;;24.36;68.28;96317.05;1680757;85;21253;-80
2021/06/29 08:13:31;;;;;;;10.10;9.20;;;;;;;24.44;68.41;96320.49;1680292;85;21047;-80
2021/06/29 08:15:57;;;;;;;9.40;8.68;;;;;;;24.53;68.07;96314.33;1677532;85;20932;-80
2021/06/29 08:18:23;;;;;;;10.60;9.50;;;;;;;24.64;66.60;96317.75;1672143;85;20976;-81
2021/06/29 08:20:51;;;;;;;10.85;9.83;;;;;;;24.81;65.17;96315.55;1673385;85;21257;-80
2021/06/29 08:23:17;;;;;;;10.48;9.50;;;;;;;24.99;66.50;96312.78;1649406;85;20997;-80
2021/06/29 08:25:44;;;;;;;9.78;8.78;;;;;;;25.05;64.73;96314.36;1658949;86;20980;-80
2021/06/29 08:28:13;;;;;;;9.75;8.85;;;;;;;25.17;63.72;96321.22;1654607;85;21040;-80
2021/06/29 08:30:39;;;;;;;9.75;8.95;;;;;;;25.30;63.91;96313.95;1652728;85;21341;-81
2021/06/29 08:33:10;;;;;;;9.80;8.93;;;;;;;25.46;62.03;96310.66;1669270;84;20993;-80
2021/06/29 08:35:33;;;;;;;10.75;9.65;;;;;;;25.60;63.76;96315.06;1669404;85;21049;-80
2021/06/29 08:37:59;;;;;;;9.88;9.03;;;;;;;25.72;65.10;96310.20;1669351;85;21311;-80
2021/06/29 08:40:25;;;;;;;9.90;9.10;;;;;;;25.83;62.96;96312.75;1668147;85;21034;-81
2021/06/29 08:42:51;;;;;;;9.70;8.83;;;;;;;25.94;62.62;96314.26;1671320;84;21049;-80
2021/06/29 08:45:16;;;;;;;9.93;9.00;;;;;;;26.07;62.83;96317.59;1666717;85;21069;-81
2021/06/29 08:47:42;;;;;;;9.88;9.05;;;;;;;26.19;61.32;96327.30;1623138;86;21053;-81
2021/06/29 08:50:12;;;;;;;8.65;7.85;;;;;;;26.21;62.21;96321.19;1628298;86;21355;-81
2021/06/29 08:52:37;;;;;;;8.95;8.15;;;;;;;26.28;60.58;96314.97;1635596;85;21002;-80
2021/06/29 08:55:06;;;;;;;9.83;9.00;;;;;;;26.51;62.26;96315.27;1660149;85;21043;-82
2021/06/29 08:57:32;;;;;;;9.25;8.45;;;;;;;26.51;62.26;96315.27;1631201;86;20938;-81
2021/06/29 08:59:59;;;;;;;9.70;8.93;;;;;;;26.68;61.39;96317.46;1640488;86;20951;-82
2021/06/29 09:02:25;;;;;;;9.45;8.65;;;;;;;26.86;61.45;96309.52;1640316;86;20989;-82
2021/06/29 09:04:58;;;;;;;9.28;8.50;;;;;;;26.86;61.45;96309.52;1665060;84;20994;-82
2021/06/29 09:07:28;;;;;;;9.40;8.50;;;;;;;26.90;60.63;96297.73;1668633;85;21049;-82
2021/06/29 09:09:56;;;;;;;9.43;8.63;;;;;;;27.02;60.46;96313.34;1640846;86;21013;-81
2021/06/29 09:12:49;;;;;;;9.60;8.80;;;;;;;27.02;60.51;96307.47;1637425;86;21294;-82
2021/06/29 09:15:39;;;;;;;10.20;9.30;;;;;;;27.05;60.58;96314.09;1623106;87;20995;-82
2021/06/29 09:18:14;;;;;;;9.00;8.25;;;;;;;27.14;61.13;96305.14;1662253;85;20968;-82
2021/06/29 09:20:44;;;;;;;9.93;9.03;;;;;;;27.24;60.21;96304.75;1668978;85;20962;-82
2021/06/29 09:23:16;;;;;;;9.28;8.48;;;;;;;27.39;60.61;96301.85;1615420;86;20954;-81
2021/06/29 09:25:47;;;;;;;10.40;9.33;;;;;;;27.47;59.06;96299.84;1670434;85;21302;-82
2021/06/29 09:28:19;;;;;;;;;;;;;;;27.51;59.63;96292.31;1643001;86;21061;-82
2021/06/29 09:30:50;;;;;;;;;;;;;;;27.61;58.79;96287.88;1672658;84;20161;-81
2021/06/29 09:33:32;;;;;;;8.55;7.55;;;;;;;27.61;59.80;96279.88;1677340;84;20096;-82
2021/06/29 09:36:06;;;;;;;8.78;8.08;;;;;;;27.57;58.43;96290.34;1669535;85;20985;-82
2021/06/29 09:38:36;;;;;;;9.63;8.63;;;;;;;27.57;59.25;96281.55;1668821;85;21433;-82
2021/06/29 09:41:10;;;;;;;8.78;8.03;;;;;;;27.59;61.13;96273.50;1669283;85;21354;-82
2021/06/29 09:43:42;;;;;;;9.13;8.33;;;;;;;27.59;59.48;96268.70;1665503;85;21048;-81
2021/06/29 09:46:13;;;;;;;8.65;7.95;;;;;;;27.60;60.19;96268.95;1667247;85;21050;-81
2021/06/29 09:48:46;;;;;;;8.98;8.30;;;;;;;27.62;59.82;96267.57;1670680;85;20949;-82
2021/06/29 09:51:19;;;;;;;8.65;7.85;;;;;;;27.62;60.52;96269.45;1671736;84;20986;-82
2021/06/29 09:53:50;;;;;;;9.13;8.05;;;;;;;27.62;60.28;96264.90;1664571;85;20997;-82
2021/06/29 09:56:20;;;;;;;10.00;8.80;;;;;;;27.64;61.14;96264.09;1673631;84;21309;-82
2021/06/29 09:58:53;;;;;;;9.45;8.55;;;;;;;27.54;58.46;96258.91;1667600;85;21297;-82
2021/06/29 10:01:18;;;;;;;8.55;7.85;;;;;;;27.54;59.78;96260.25;1666554;85;21001;-82
2021/06/29 10:03:44;;;;;;;8.75;8.05;;;;;;;27.62;59.82;96262.23;1665330;85;20953;-82
2021/06/29 10:06:20;;;;;;;9.00;8.30;;;;;;;27.70;60.33;96263.48;1669234;85;21025;-81
2021/06/29 10:08:52;;;;;;;9.50;8.70;;;;;;;27.73;59.23;96259.67;1668782;85;20973;-82
2021/06/29 10:11:28;;;;;;;9.03;8.13;;;;;;;27.71;59.92;96259.72;1673516;85;21000;-82
2021/06/29 10:14:05;;;;;;;8.60;7.87;;;;;;;27.76;59.88;96260.96;1641738;85;21084;-82
2021/06/29 10:16:39;;;;;;;9.05;8.25;;;;;;;27.83;60.53;96264.05;1666924;85;20929;-82
2021/06/29 10:21:32;;;;;;;10.18;9.30;;;;;;;27.94;59.51;96256.09;1631184;86;21002;-82
2021/06/29 10:24:02;;;;;;;8.80;8.00;;;;;;;28.00;59.13;96253.59;1629318;86;21011;-81
2021/06/29 10:26:30;;;;;;;8.77;7.97;;;;;;;28.10;60.01;96257.93;1641636;85;21317;-82
2021/06/29 10:28:56;;;;;;;8.83;8.03;;;;;;;28.03;58.16;96254.33;1669056;84;21065;-82
2021/06/29 10:31:26;;;;;;;9.70;8.70;;;;;;;28.02;57.35;96256.75;1672179;84;20956;-82
2021/06/29 10:33:55;;;;;;;9.20;8.38;;;;;;;28.02;59.56;96258.63;1658614;85;20987;-82
2021/06/29 10:36:22;;;;;;;10.23;9.23;;;;;;;28.01;59.53;96261.05;1660770;85;21171;-82
2021/06/29 10:38:49;;;;;;;9.60;8.65;;;;;;;28.02;57.60;96243.40;1659902;85;21052;-82
2021/06/29 10:41:15;;;;;;;9.58;8.73;;;;;;;28.05;59.92;96249.48;1652946;85;21052;-82
2021/06/29 10:43:42;;;;;;;8.98;8.28;;;;;;;28.11;59.82;96252.83;1649573;85;21031;-82
2021/06/29 10:46:30;;;;;;;8.73;8.00;;;;;;;28.13;58.39;96253.33;1638934;86;22033;-81
2021/06/29 10:49:18;;;;;;;10.23;7.62;;;;;;;28.16;59.71;96254.64;1653322;85;21308;-82
2021/06/29 10:51:44;;;;;;;9.70;8.80;;;;;;;27.99;57.16;96249.88;1654104;85;20980;-82
2021/06/29 10:54:37;;;;;;;10.53;9.40;;;;;;;27.64;58.82;96252.63;1656010;85;20980;-81
2021/06/29 10:57:16;;;;;;;9.53;8.63;;;;;;;27.44;60.04;96247.86;1669358;85;20979;-82
2021/06/29 10:59:42;;;;;;;10.08;9.13;;;;;;;27.17;59.39;96245.91;1665958;85;20905;-81
2021/06/29 11:02:12;;;;;;;9.53;8.38;;;;;;;26.97;60.48;96246.16;1668982;85;21039;-82
2021/06/29 11:04:54;;;;;;;9.53;8.63;;;;;;;26.95;60.51;96244.88;1682188;84;20934;-81
2021/06/29 11:07:43;;;;;;;10.08;9.25;;;;;;;27.04;61.95;96243.17;1634981;86;21273;-82
2021/06/29 11:10:28;;;;;;;8.95;8.23;;;;;;;27.03;61.75;96241.59;1638444;86;20979;-82
2021/06/29 11:12:59;;;;;;;8.85;8.15;;;;;;;27.01;61.63;96243.73;1655160;85;21307;-82
2021/06/29 11:15:49;;;;;;;;;;;;;;;27.08;61.54;96243.63;1671625;85;21006;-82
2021/06/29 11:18:21;;;;;;;9.25;8.40;;;;;;;27.15;60.56;96241.92;1621801;86;20119;-82
2021/06/29 11:20:50;;;;;;;9.78;8.98;;;;;;;27.07;60.81;96246.59;1663669;86;20963;-82
2021/06/29 11:23:29;;;;;;;9.00;8.20;;;;;;;26.90;61.04;96241.75;1645450;85;20983;-82
2021/06/29 11:26:03;;;;;;;9.08;8.18;;;;;;;26.78;60.94;96239.50;1669218;85;20988;-82
2021/06/29 11:28:34;;;;;;;9.28;8.38;;;;;;;26.73;61.87;96240.92;1626663;86;21172;-82
2021/06/29 11:31:25;;;;;;;8.83;8.13;;;;;;;26.67;62.17;96235.93;1648562;85;20992;-82
2021/06/29 11:33:54;;;;;;;9.03;8.23;;;;;;;26.67;61.86;96239.38;1641324;85;21052;-82
2021/06/29 11:36:29;;;;;;;9.45;8.60;;;;;;;26.67;61.84;96238.05;1666722;85;20914;-82
2021/06/29 11:39:17;;;;;;;8.30;7.47;;;;;;;26.86;63.38;96234.88;1627607;85;21210;-82